sensor_id;sensor_type;location;lat;lon;timestamp;temperature;humidity
20341;DHT22;10328;50.042;8.238;2022-08-01T00:00:00;23.00;99.90
20341;DHT22;10328;50.042;8.238;2022-08-01T00:02:28;22.90;99.90
20341;DHT22;10328;50.042;8.238;2022-08-01T00:04:55;22.90;99.90
20341;DHT22;10328;50.042;8.238;2022-08-01T00:07:21;22.90;99.90
20341;DHT22;10328;50.042;8.238;2022-08-01T00:09:48;22.90;99.90
20341;DHT22;10328;50.042;8.238;2022-08-01T00:12:15;22.90;99.90
20341;DHT22;10328;50.042;8.238;2022-08-01T00:14:41;22.90;99.90
20341;DHT22;10328;50.042;8.238;2022-08-01T00:17:08;22.70;99.90
20341;DHT22;10328;50.042;8.238;2022-08-01T00:19:34;22.70;99.90
20341;DHT22;10328;50.042;8.238;2022-08-01T00:22:01;22.70;99.90
20341;DHT22;10328;50.042;8.238;2022-08-01T00:24:28;22.60;99.90
20341;DHT22;10328;50.042;8.238;2022-08-01T00:26:55;22.60;99.90
20341;DHT22;10328;50.042;8.238;2022-08-01T00:29:21;22.50;99.90
20341;DHT22;10328;50.042;8.238;2022-08-01T00:32:08;22.60;99.90
20341;DHT22;10328;50.042;8.238;2022-08-01T00:34:35;22.50;99.90
20341;DHT22;10328;50.042;8.238;2022-08-01T00:37:02;22.50;99.90
20341;DHT22;10328;50.042;8.238;2022-08-01T00:39:28;22.50;99.90
20341;DHT22;10328;50.042;8.238;2022-08-01T00:41:55;22.50;99.90
20341;DHT22;10328;50.042;8.238;2022-08-01T00:44:26;22.40;99.90
20341;DHT22;10328;50.042;8.238;2022-08-01T00:46:52;22.30;99.90
20341;DHT22;10328;50.042;8.238;2022-08-01T00:49:19;22.40;99.90
20341;DHT22;10328;50.042;8.238;2022-08-01T00:51:46;22.40;99.90
20341;DHT22;10328;50.042;8.238;2022-08-01T00:54:12;22.30;99.90
20341;DHT22;10328;50.042;8.238;2022-08-01T00:56:42;22.40;99.90
20341;DHT22;10328;50.042;8.238;2022-08-01T00:59:11;22.30;99.90
20341;DHT22;10328;50.042;8.238;2022-08-01T01:01:40;22.30;99.90
20341;DHT22;10328;50.042;8.238;2022-08-01T01:04:12;22.30;99.90
20341;DHT22;10328;50.042;8.238;2022-08-01T01:06:48;22.20;99.90
20341;DHT22;10328;50.042;8.238;2022-08-01T01:12:13;22.20;99.90
20341;DHT22;10328;50.042;8.238;2022-08-01T01:17:41;22.10;99.90
20341;DHT22;10328;50.042;8.238;2022-08-01T01:20:18;22.00;99.90
20341;DHT22;10328;50.042;8.238;2022-08-01T01:25:41;22.00;99.90
20341;DHT22;10328;50.042;8.238;2022-08-01T01:31:00;21.70;99.90
20341;DHT22;10328;50.042;8.238;2022-08-01T01:33:28;21.60;99.90
20341;DHT22;10328;50.042;8.238;2022-08-01T01:35:59;21.50;99.90
20341;DHT22;10328;50.042;8.238;2022-08-01T01:38:32;21.60;99.90
20341;DHT22;10328;50.042;8.238;2022-08-01T01:41:00;21.60;99.90
20341;DHT22;10328;50.042;8.238;2022-08-01T01:43:29;21.50;99.90
20341;DHT22;10328;50.042;8.238;2022-08-01T01:46:00;21.40;99.90
20341;DHT22;10328;50.042;8.238;2022-08-01T01:48:28;21.30;99.90
20341;DHT22;10328;50.042;8.238;2022-08-01T01:50:56;21.20;99.90
20341;DHT22;10328;50.042;8.238;2022-08-01T01:53:23;21.20;99.90
20341;DHT22;10328;50.042;8.238;2022-08-01T01:55:52;21.20;99.90
20341;DHT22;10328;50.042;8.238;2022-08-01T01:58:20;21.10;99.90
20341;DHT22;10328;50.042;8.238;2022-08-01T02:00:48;21.10;99.90
20341;DHT22;10328;50.042;8.238;2022-08-01T02:03:18;21.00;99.90
20341;DHT22;10328;50.042;8.238;2022-08-01T02:05:45;20.90;99.90
20341;DHT22;10328;50.042;8.238;2022-08-01T02:08:15;20.90;99.90
20341;DHT22;10328;50.042;8.238;2022-08-01T02:10:44;20.80;99.90
20341;DHT22;10328;50.042;8.238;2022-08-01T02:13:33;20.80;99.90
20341;DHT22;10328;50.042;8.238;2022-08-01T02:16:01;20.70;99.90
20341;DHT22;10328;50.042;8.238;2022-08-01T02:18:27;20.60;99.90
20341;DHT22;10328;50.042;8.238;2022-08-01T02:20:55;20.70;99.90
20341;DHT22;10328;50.042;8.238;2022-08-01T02:23:24;20.70;99.90
20341;DHT22;10328;50.042;8.238;2022-08-01T02:25:55;20.80;99.90
20341;DHT22;10328;50.042;8.238;2022-08-01T02:28:53;20.80;99.90
20341;DHT22;10328;50.042;8.238;2022-08-01T02:31:22;20.80;99.90
20341;DHT22;10328;50.042;8.238;2022-08-01T02:34:09;20.70;99.90
20341;DHT22;10328;50.042;8.238;2022-08-01T02:36:38;20.70;99.90
20341;DHT22;10328;50.042;8.238;2022-08-01T02:39:13;20.70;99.90
20341;DHT22;10328;50.042;8.238;2022-08-01T02:41:48;20.60;99.90
20341;DHT22;10328;50.042;8.238;2022-08-01T02:44:24;20.70;99.90
20341;DHT22;10328;50.042;8.238;2022-08-01T02:47:00;20.60;99.90
20341;DHT22;10328;50.042;8.238;2022-08-01T02:49:31;20.50;99.90
20341;DHT22;10328;50.042;8.238;2022-08-01T02:52:02;20.40;99.90
20341;DHT22;10328;50.042;8.238;2022-08-01T02:54:31;20.40;99.90
20341;DHT22;10328;50.042;8.238;2022-08-01T02:57:00;20.40;99.90
20341;DHT22;10328;50.042;8.238;2022-08-01T02:59:28;20.30;99.90
20341;DHT22;10328;50.042;8.238;2022-08-01T03:01:57;20.30;99.90
20341;DHT22;10328;50.042;8.238;2022-08-01T03:04:26;20.30;99.90
20341;DHT22;10328;50.042;8.238;2022-08-01T03:06:55;20.40;99.90
20341;DHT22;10328;50.042;8.238;2022-08-01T03:09:27;20.30;99.90
20341;DHT22;10328;50.042;8.238;2022-08-01T03:11:57;20.20;99.90
20341;DHT22;10328;50.042;8.238;2022-08-01T03:14:25;20.20;99.90
20341;DHT22;10328;50.042;8.238;2022-08-01T03:16:53;20.10;99.90
20341;DHT22;10328;50.042;8.238;2022-08-01T03:19:23;20.10;99.90
20341;DHT22;10328;50.042;8.238;2022-08-01T03:21:51;20.30;99.90
20341;DHT22;10328;50.042;8.238;2022-08-01T03:24:19;20.20;99.90
20341;DHT22;10328;50.042;8.238;2022-08-01T03:26:48;20.10;99.90
20341;DHT22;10328;50.042;8.238;2022-08-01T03:29:21;20.10;99.90
20341;DHT22;10328;50.042;8.238;2022-08-01T03:31:49;20.00;99.90
20341;DHT22;10328;50.042;8.238;2022-08-01T03:34:17;20.10;99.90
20341;DHT22;10328;50.042;8.238;2022-08-01T03:39:31;20.10;99.90
20341;DHT22;10328;50.042;8.238;2022-08-01T03:42:05;20.10;99.90
20341;DHT22;10328;50.042;8.238;2022-08-01T03:44:35;20.10;99.90
20341;DHT22;10328;50.042;8.238;2022-08-01T03:47:07;20.20;99.90
20341;DHT22;10328;50.042;8.238;2022-08-01T03:49:41;20.30;99.90
20341;DHT22;10328;50.042;8.238;2022-08-01T03:52:09;20.30;99.90
20341;DHT22;10328;50.042;8.238;2022-08-01T03:54:41;20.50;99.90
20341;DHT22;10328;50.042;8.238;2022-08-01T03:57:08;20.60;99.90
20341;DHT22;10328;50.042;8.238;2022-08-01T03:59:58;20.60;99.90
20341;DHT22;10328;50.042;8.238;2022-08-01T04:02:26;20.50;99.90
20341;DHT22;10328;50.042;8.238;2022-08-01T04:04:54;20.70;99.90
20341;DHT22;10328;50.042;8.238;2022-08-01T04:07:28;20.80;99.90
20341;DHT22;10328;50.042;8.238;2022-08-01T04:09:55;20.90;99.90
20341;DHT22;10328;50.042;8.238;2022-08-01T04:12:22;21.00;99.90
20341;DHT22;10328;50.042;8.238;2022-08-01T04:14:49;20.80;99.90
20341;DHT22;10328;50.042;8.238;2022-08-01T04:17:16;20.60;99.90
20341;DHT22;10328;50.042;8.238;2022-08-01T04:19:43;20.70;99.90
20341;DHT22;10328;50.042;8.238;2022-08-01T04:22:13;20.80;99.90
20341;DHT22;10328;50.042;8.238;2022-08-01T04:24:41;20.90;99.90
20341;DHT22;10328;50.042;8.238;2022-08-01T04:27:13;21.00;99.90
20341;DHT22;10328;50.042;8.238;2022-08-01T04:29:41;21.00;99.90
20341;DHT22;10328;50.042;8.238;2022-08-01T04:32:11;21.00;99.90
20341;DHT22;10328;50.042;8.238;2022-08-01T04:34:41;20.90;99.90
20341;DHT22;10328;50.042;8.238;2022-08-01T04:37:09;21.00;99.90
20341;DHT22;10328;50.042;8.238;2022-08-01T04:39:39;21.10;99.90
20341;DHT22;10328;50.042;8.238;2022-08-01T04:42:16;21.10;99.90
20341;DHT22;10328;50.042;8.238;2022-08-01T04:44:51;21.20;99.90
20341;DHT22;10328;50.042;8.238;2022-08-01T04:47:18;21.30;99.90
20341;DHT22;10328;50.042;8.238;2022-08-01T04:49:46;21.30;99.90
20341;DHT22;10328;50.042;8.238;2022-08-01T04:52:14;21.40;99.90
20341;DHT22;10328;50.042;8.238;2022-08-01T04:54:50;21.50;99.90
20341;DHT22;10328;50.042;8.238;2022-08-01T04:57:16;21.60;99.90
20341;DHT22;10328;50.042;8.238;2022-08-01T04:59:43;21.70;99.90
20341;DHT22;10328;50.042;8.238;2022-08-01T05:04:40;22.00;99.90
20341;DHT22;10328;50.042;8.238;2022-08-01T05:07:08;22.10;99.90
20341;DHT22;10328;50.042;8.238;2022-08-01T05:09:36;22.10;99.90
20341;DHT22;10328;50.042;8.238;2022-08-01T05:12:04;22.10;99.90
20341;DHT22;10328;50.042;8.238;2022-08-01T05:14:33;22.20;99.90
20341;DHT22;10328;50.042;8.238;2022-08-01T05:17:01;22.30;99.90
20341;DHT22;10328;50.042;8.238;2022-08-01T05:19:30;22.40;99.90
20341;DHT22;10328;50.042;8.238;2022-08-01T05:22:00;22.40;99.90
20341;DHT22;10328;50.042;8.238;2022-08-01T05:24:28;22.40;99.90
20341;DHT22;10328;50.042;8.238;2022-08-01T05:26:56;22.30;99.90
20341;DHT22;10328;50.042;8.238;2022-08-01T05:29:24;22.30;99.90
20341;DHT22;10328;50.042;8.238;2022-08-01T05:31:52;22.40;99.90
20341;DHT22;10328;50.042;8.238;2022-08-01T05:34:19;22.30;99.90
20341;DHT22;10328;50.042;8.238;2022-08-01T05:36:46;22.20;99.90
20341;DHT22;10328;50.042;8.238;2022-08-01T05:39:13;22.10;99.90
20341;DHT22;10328;50.042;8.238;2022-08-01T05:41:41;22.20;99.90
20341;DHT22;10328;50.042;8.238;2022-08-01T05:44:08;22.40;99.90
20341;DHT22;10328;50.042;8.238;2022-08-01T05:46:36;22.50;99.90
20341;DHT22;10328;50.042;8.238;2022-08-01T05:49:04;22.50;99.90
20341;DHT22;10328;50.042;8.238;2022-08-01T05:51:31;22.70;99.90
20341;DHT22;10328;50.042;8.238;2022-08-01T05:53:58;22.80;99.90
20341;DHT22;10328;50.042;8.238;2022-08-01T05:56:25;22.80;99.90
20341;DHT22;10328;50.042;8.238;2022-08-01T05:58:57;22.70;99.90
20341;DHT22;10328;50.042;8.238;2022-08-01T06:01:24;22.70;99.90
20341;DHT22;10328;50.042;8.238;2022-08-01T06:03:50;22.80;99.90
20341;DHT22;10328;50.042;8.238;2022-08-01T06:06:18;22.90;99.90
20341;DHT22;10328;50.042;8.238;2022-08-01T06:08:50;23.00;99.90
20341;DHT22;10328;50.042;8.238;2022-08-01T06:11:18;23.30;99.90
20341;DHT22;10328;50.042;8.238;2022-08-01T06:13:45;23.40;99.90
20341;DHT22;10328;50.042;8.238;2022-08-01T06:16:15;23.60;99.90
20341;DHT22;10328;50.042;8.238;2022-08-01T06:18:42;23.90;99.90
20341;DHT22;10328;50.042;8.238;2022-08-01T06:21:09;24.00;99.90
20341;DHT22;10328;50.042;8.238;2022-08-01T06:23:35;24.10;99.90
20341;DHT22;10328;50.042;8.238;2022-08-01T06:26:02;24.20;99.90
20341;DHT22;10328;50.042;8.238;2022-08-01T06:28:29;24.30;99.90
20341;DHT22;10328;50.042;8.238;2022-08-01T06:30:56;24.30;99.90
20341;DHT22;10328;50.042;8.238;2022-08-01T06:33:25;24.60;99.90
20341;DHT22;10328;50.042;8.238;2022-08-01T06:35:52;25.10;99.90
20341;DHT22;10328;50.042;8.238;2022-08-01T06:38:18;25.20;99.90
20341;DHT22;10328;50.042;8.238;2022-08-01T06:40:45;25.40;99.90
20341;DHT22;10328;50.042;8.238;2022-08-01T06:43:12;25.70;99.90
20341;DHT22;10328;50.042;8.238;2022-08-01T06:45:39;25.70;99.90
20341;DHT22;10328;50.042;8.238;2022-08-01T06:48:06;25.50;99.90
20341;DHT22;10328;50.042;8.238;2022-08-01T06:50:33;25.50;99.90
20341;DHT22;10328;50.042;8.238;2022-08-01T06:53:02;25.50;99.90
20341;DHT22;10328;50.042;8.238;2022-08-01T06:55:29;25.60;99.90
20341;DHT22;10328;50.042;8.238;2022-08-01T06:57:56;25.70;99.90
20341;DHT22;10328;50.042;8.238;2022-08-01T07:00:24;25.70;99.90
20341;DHT22;10328;50.042;8.238;2022-08-01T07:02:55;25.70;99.90
20341;DHT22;10328;50.042;8.238;2022-08-01T07:05:23;25.50;99.90
20341;DHT22;10328;50.042;8.238;2022-08-01T07:07:50;25.30;99.90
20341;DHT22;10328;50.042;8.238;2022-08-01T07:10:17;25.30;99.90
20341;DHT22;10328;50.042;8.238;2022-08-01T07:12:43;25.40;99.90
20341;DHT22;10328;50.042;8.238;2022-08-01T07:15:11;25.50;99.90
20341;DHT22;10328;50.042;8.238;2022-08-01T07:17:42;25.90;99.90
20341;DHT22;10328;50.042;8.238;2022-08-01T07:20:11;25.90;99.90
20341;DHT22;10328;50.042;8.238;2022-08-01T07:22:42;26.40;99.90
20341;DHT22;10328;50.042;8.238;2022-08-01T07:25:09;26.70;99.90
20341;DHT22;10328;50.042;8.238;2022-08-01T07:27:36;26.70;99.90
20341;DHT22;10328;50.042;8.238;2022-08-01T07:30:04;26.90;99.90
20341;DHT22;10328;50.042;8.238;2022-08-01T07:32:31;27.30;99.90
20341;DHT22;10328;50.042;8.238;2022-08-01T07:34:58;27.50;99.90
20341;DHT22;10328;50.042;8.238;2022-08-01T07:37:25;27.90;99.90
20341;DHT22;10328;50.042;8.238;2022-08-01T07:40:13;27.80;99.90
20341;DHT22;10328;50.042;8.238;2022-08-01T07:42:40;27.60;99.90
20341;DHT22;10328;50.042;8.238;2022-08-01T07:45:11;27.50;99.90
20341;DHT22;10328;50.042;8.238;2022-08-01T07:47:38;27.50;99.90
20341;DHT22;10328;50.042;8.238;2022-08-01T07:50:05;27.70;99.90
20341;DHT22;10328;50.042;8.238;2022-08-01T07:52:32;27.80;99.90
20341;DHT22;10328;50.042;8.238;2022-08-01T07:54:59;28.00;99.90
20341;DHT22;10328;50.042;8.238;2022-08-01T07:57:26;28.30;99.90
20341;DHT22;10328;50.042;8.238;2022-08-01T07:59:52;28.40;99.90
20341;DHT22;10328;50.042;8.238;2022-08-01T08:02:19;28.30;99.90
20341;DHT22;10328;50.042;8.238;2022-08-01T08:04:46;28.50;99.90
20341;DHT22;10328;50.042;8.238;2022-08-01T08:07:15;28.70;99.90
20341;DHT22;10328;50.042;8.238;2022-08-01T08:09:41;28.80;99.90
20341;DHT22;10328;50.042;8.238;2022-08-01T08:12:08;29.00;99.90
20341;DHT22;10328;50.042;8.238;2022-08-01T08:14:36;29.00;99.90
20341;DHT22;10328;50.042;8.238;2022-08-01T08:17:03;29.20;99.90
20341;DHT22;10328;50.042;8.238;2022-08-01T08:19:30;29.20;99.90
20341;DHT22;10328;50.042;8.238;2022-08-01T08:22:05;29.40;99.90
20341;DHT22;10328;50.042;8.238;2022-08-01T08:24:32;29.70;99.90
20341;DHT22;10328;50.042;8.238;2022-08-01T08:27:00;29.90;99.90
20341;DHT22;10328;50.042;8.238;2022-08-01T08:29:29;29.40;99.90
20341;DHT22;10328;50.042;8.238;2022-08-01T08:31:59;28.80;99.90
20341;DHT22;10328;50.042;8.238;2022-08-01T08:34:27;27.80;99.90
20341;DHT22;10328;50.042;8.238;2022-08-01T08:36:54;27.60;99.90
20341;DHT22;10328;50.042;8.238;2022-08-01T08:39:24;27.40;99.90
20341;DHT22;10328;50.042;8.238;2022-08-01T08:41:51;27.50;99.90
20341;DHT22;10328;50.042;8.238;2022-08-01T08:44:18;27.20;99.90
20341;DHT22;10328;50.042;8.238;2022-08-01T08:46:48;27.30;99.90
20341;DHT22;10328;50.042;8.238;2022-08-01T08:49:21;27.30;99.90
20341;DHT22;10328;50.042;8.238;2022-08-01T08:51:50;27.40;99.90
20341;DHT22;10328;50.042;8.238;2022-08-01T08:54:18;27.30;99.90
20341;DHT22;10328;50.042;8.238;2022-08-01T08:56:47;27.10;99.90
20341;DHT22;10328;50.042;8.238;2022-08-01T08:59:14;26.90;99.90
20341;DHT22;10328;50.042;8.238;2022-08-01T09:01:41;26.70;99.90
20341;DHT22;10328;50.042;8.238;2022-08-01T09:04:09;26.50;99.90
20341;DHT22;10328;50.042;8.238;2022-08-01T09:06:35;26.30;99.90
20341;DHT22;10328;50.042;8.238;2022-08-01T09:09:03;26.20;99.90
20341;DHT22;10328;50.042;8.238;2022-08-01T09:11:30;26.50;99.90
20341;DHT22;10328;50.042;8.238;2022-08-01T09:16:28;27.40;99.90
20341;DHT22;10328;50.042;8.238;2022-08-01T09:19:16;28.00;99.90
20341;DHT22;10328;50.042;8.238;2022-08-01T09:22:06;28.50;99.90
20341;DHT22;10328;50.042;8.238;2022-08-01T09:24:34;28.70;99.90
20341;DHT22;10328;50.042;8.238;2022-08-01T09:27:18;28.90;99.90
20341;DHT22;10328;50.042;8.238;2022-08-01T09:29:48;29.30;99.90
20341;DHT22;10328;50.042;8.238;2022-08-01T09:32:30;29.30;99.90
20341;DHT22;10328;50.042;8.238;2022-08-01T09:38:16;29.00;99.90
20341;DHT22;10328;50.042;8.238;2022-08-01T09:40:48;28.90;99.90
20341;DHT22;10328;50.042;8.238;2022-08-01T09:43:16;28.90;99.90
20341;DHT22;10328;50.042;8.238;2022-08-01T09:45:44;28.90;99.90
20341;DHT22;10328;50.042;8.238;2022-08-01T09:48:16;28.60;99.90
20341;DHT22;10328;50.042;8.238;2022-08-01T09:50:45;28.70;99.90
20341;DHT22;10328;50.042;8.238;2022-08-01T09:53:14;29.20;99.90
20341;DHT22;10328;50.042;8.238;2022-08-01T09:56:11;29.80;99.90
20341;DHT22;10328;50.042;8.238;2022-08-01T10:01:27;30.30;99.90
20341;DHT22;10328;50.042;8.238;2022-08-01T10:04:19;30.40;99.90
20341;DHT22;10328;50.042;8.238;2022-08-01T10:06:50;29.70;99.90
20341;DHT22;10328;50.042;8.238;2022-08-01T10:09:32;29.90;99.90
20341;DHT22;10328;50.042;8.238;2022-08-01T10:12:06;30.20;99.90
20341;DHT22;10328;50.042;8.238;2022-08-01T10:14:34;30.10;99.90
20341;DHT22;10328;50.042;8.238;2022-08-01T10:17:03;30.40;99.90
20341;DHT22;10328;50.042;8.238;2022-08-01T10:19:31;30.50;99.90
20341;DHT22;10328;50.042;8.238;2022-08-01T10:21:59;30.50;99.90
20341;DHT22;10328;50.042;8.238;2022-08-01T10:24:29;30.50;99.90
20341;DHT22;10328;50.042;8.238;2022-08-01T10:26:59;30.70;99.90
20341;DHT22;10328;50.042;8.238;2022-08-01T10:29:58;30.70;99.90
20341;DHT22;10328;50.042;8.238;2022-08-01T10:32:50;30.70;99.90
20341;DHT22;10328;50.042;8.238;2022-08-01T10:35:21;31.00;99.90
20341;DHT22;10328;50.042;8.238;2022-08-01T10:38:08;30.80;99.90
20341;DHT22;10328;50.042;8.238;2022-08-01T10:40:40;31.20;99.90
20341;DHT22;10328;50.042;8.238;2022-08-01T10:43:09;31.50;99.90
20341;DHT22;10328;50.042;8.238;2022-08-01T10:45:36;32.00;99.90
20341;DHT22;10328;50.042;8.238;2022-08-01T10:48:09;32.40;99.90
20341;DHT22;10328;50.042;8.238;2022-08-01T10:50:44;32.50;99.90
20341;DHT22;10328;50.042;8.238;2022-08-01T10:53:20;31.20;99.90
20341;DHT22;10328;50.042;8.238;2022-08-01T10:55:58;31.10;99.90
20341;DHT22;10328;50.042;8.238;2022-08-01T11:01:25;31.50;99.90
20341;DHT22;10328;50.042;8.238;2022-08-01T11:09:02;31.20;99.90
20341;DHT22;10328;50.042;8.238;2022-08-01T11:11:31;31.60;99.90
20341;DHT22;10328;50.042;8.238;2022-08-01T11:14:05;31.90;99.90
20341;DHT22;10328;50.042;8.238;2022-08-01T11:16:36;31.80;99.90
20341;DHT22;10328;50.042;8.238;2022-08-01T11:19:07;31.00;99.90
20341;DHT22;10328;50.042;8.238;2022-08-01T11:27:30;31.40;99.90
20341;DHT22;10328;50.042;8.238;2022-08-01T11:32:52;30.90;99.90
20341;DHT22;10328;50.042;8.238;2022-08-01T11:35:38;31.20;99.90
20341;DHT22;10328;50.042;8.238;2022-08-01T11:38:25;30.90;99.90
20341;DHT22;10328;50.042;8.238;2022-08-01T11:41:22;30.80;99.90
20341;DHT22;10328;50.042;8.238;2022-08-01T11:44:12;30.40;99.90
20341;DHT22;10328;50.042;8.238;2022-08-01T11:52:05;31.00;99.90
20341;DHT22;10328;50.042;8.238;2022-08-01T11:54:42;30.90;99.90
20341;DHT22;10328;50.042;8.238;2022-08-01T11:57:12;30.90;99.90
20341;DHT22;10328;50.042;8.238;2022-08-01T11:59:44;30.90;99.90
20341;DHT22;10328;50.042;8.238;2022-08-01T12:02:31;31.20;99.90
20341;DHT22;10328;50.042;8.238;2022-08-01T12:05:16;31.90;99.90
20341;DHT22;10328;50.042;8.238;2022-08-01T12:07:45;32.10;99.90
20341;DHT22;10328;50.042;8.238;2022-08-01T12:10:17;32.50;99.90
20341;DHT22;10328;50.042;8.238;2022-08-01T12:15:12;33.20;99.90
20341;DHT22;10328;50.042;8.238;2022-08-01T12:17:44;33.40;99.90
20341;DHT22;10328;50.042;8.238;2022-08-01T12:20:26;33.10;99.90
20341;DHT22;10328;50.042;8.238;2022-08-01T12:22:57;32.90;99.90
20341;DHT22;10328;50.042;8.238;2022-08-01T12:25:24;32.60;99.90
20341;DHT22;10328;50.042;8.238;2022-08-01T12:27:51;32.50;99.90
20341;DHT22;10328;50.042;8.238;2022-08-01T12:30:23;32.60;99.90
20341;DHT22;10328;50.042;8.238;2022-08-01T12:32:51;32.40;99.90
20341;DHT22;10328;50.042;8.238;2022-08-01T12:35:23;32.30;99.90
20341;DHT22;10328;50.042;8.238;2022-08-01T12:37:54;32.20;99.90
20341;DHT22;10328;50.042;8.238;2022-08-01T12:40:23;31.90;99.90
20341;DHT22;10328;50.042;8.238;2022-08-01T12:42:52;31.90;99.90
20341;DHT22;10328;50.042;8.238;2022-08-01T12:45:22;31.90;99.90
20341;DHT22;10328;50.042;8.238;2022-08-01T12:47:51;32.00;99.90
20341;DHT22;10328;50.042;8.238;2022-08-01T12:50:23;32.10;99.90
20341;DHT22;10328;50.042;8.238;2022-08-01T12:52:52;32.30;99.90
20341;DHT22;10328;50.042;8.238;2022-08-01T12:55:20;32.50;99.90
20341;DHT22;10328;50.042;8.238;2022-08-01T12:57:49;32.50;99.90
20341;DHT22;10328;50.042;8.238;2022-08-01T13:00:25;32.50;99.90
20341;DHT22;10328;50.042;8.238;2022-08-01T13:03:02;32.30;99.90
20341;DHT22;10328;50.042;8.238;2022-08-01T13:05:41;32.40;99.90
20341;DHT22;10328;50.042;8.238;2022-08-01T13:08:20;32.30;99.90
20341;DHT22;10328;50.042;8.238;2022-08-01T13:10:48;32.50;99.90
20341;DHT22;10328;50.042;8.238;2022-08-01T13:13:17;32.20;99.90
20341;DHT22;10328;50.042;8.238;2022-08-01T13:16:03;32.30;99.90
20341;DHT22;10328;50.042;8.238;2022-08-01T13:18:32;32.10;99.90
20341;DHT22;10328;50.042;8.238;2022-08-01T13:21:11;32.30;99.90
20341;DHT22;10328;50.042;8.238;2022-08-01T13:23:39;32.40;99.90
20341;DHT22;10328;50.042;8.238;2022-08-01T13:29:16;31.70;99.90
20341;DHT22;10328;50.042;8.238;2022-08-01T13:31:44;31.40;99.90
20341;DHT22;10328;50.042;8.238;2022-08-01T13:34:11;31.00;99.90
20341;DHT22;10328;50.042;8.238;2022-08-01T13:36:38;31.00;99.90
20341;DHT22;10328;50.042;8.238;2022-08-01T13:39:09;31.10;99.90
20341;DHT22;10328;50.042;8.238;2022-08-01T13:41:54;31.10;99.90
20341;DHT22;10328;50.042;8.238;2022-08-01T13:44:21;31.20;99.90
20341;DHT22;10328;50.042;8.238;2022-08-01T13:46:48;31.30;99.90
20341;DHT22;10328;50.042;8.238;2022-08-01T13:49:17;30.90;99.90
20341;DHT22;10328;50.042;8.238;2022-08-01T13:51:44;30.70;99.90
20341;DHT22;10328;50.042;8.238;2022-08-01T13:54:12;30.10;99.90
20341;DHT22;10328;50.042;8.238;2022-08-01T13:56:39;29.60;99.90
20341;DHT22;10328;50.042;8.238;2022-08-01T13:59:05;29.30;99.90
20341;DHT22;10328;50.042;8.238;2022-08-01T14:01:33;29.30;99.90
20341;DHT22;10328;50.042;8.238;2022-08-01T14:04:01;29.40;99.90
20341;DHT22;10328;50.042;8.238;2022-08-01T14:06:28;29.50;99.90
20341;DHT22;10328;50.042;8.238;2022-08-01T14:08:55;29.50;99.90
20341;DHT22;10328;50.042;8.238;2022-08-01T14:11:22;29.70;99.90
20341;DHT22;10328;50.042;8.238;2022-08-01T14:13:49;29.80;99.90
20341;DHT22;10328;50.042;8.238;2022-08-01T14:16:17;29.90;99.90
20341;DHT22;10328;50.042;8.238;2022-08-01T14:18:43;29.80;99.90
20341;DHT22;10328;50.042;8.238;2022-08-01T14:21:10;29.60;99.90
20341;DHT22;10328;50.042;8.238;2022-08-01T14:23:37;29.30;99.90
20341;DHT22;10328;50.042;8.238;2022-08-01T14:26:04;29.20;99.90
20341;DHT22;10328;50.042;8.238;2022-08-01T14:28:38;29.00;99.90
20341;DHT22;10328;50.042;8.238;2022-08-01T14:31:05;28.90;99.90
20341;DHT22;10328;50.042;8.238;2022-08-01T14:33:35;28.80;99.90
20341;DHT22;10328;50.042;8.238;2022-08-01T14:36:03;28.70;99.90
20341;DHT22;10328;50.042;8.238;2022-08-01T14:38:49;28.60;99.90
20341;DHT22;10328;50.042;8.238;2022-08-01T14:41:16;28.50;99.90
20341;DHT22;10328;50.042;8.238;2022-08-01T14:43:43;28.50;99.90
20341;DHT22;10328;50.042;8.238;2022-08-01T14:46:10;28.40;99.90
20341;DHT22;10328;50.042;8.238;2022-08-01T14:48:38;28.50;99.90
20341;DHT22;10328;50.042;8.238;2022-08-01T14:51:05;28.40;99.90
20341;DHT22;10328;50.042;8.238;2022-08-01T14:53:34;28.20;99.90
20341;DHT22;10328;50.042;8.238;2022-08-01T14:56:04;28.20;99.90
20341;DHT22;10328;50.042;8.238;2022-08-01T14:58:32;28.30;99.90
20341;DHT22;10328;50.042;8.238;2022-08-01T15:00:59;28.40;99.90
20341;DHT22;10328;50.042;8.238;2022-08-01T15:03:26;28.60;99.90
20341;DHT22;10328;50.042;8.238;2022-08-01T15:05:52;28.70;99.90
20341;DHT22;10328;50.042;8.238;2022-08-01T15:08:19;29.10;99.90
20341;DHT22;10328;50.042;8.238;2022-08-01T15:10:46;29.10;99.90
20341;DHT22;10328;50.042;8.238;2022-08-01T15:13:12;29.10;99.90
20341;DHT22;10328;50.042;8.238;2022-08-01T15:15:39;28.90;99.90
20341;DHT22;10328;50.042;8.238;2022-08-01T15:18:05;28.70;99.90
20341;DHT22;10328;50.042;8.238;2022-08-01T15:20:32;28.70;99.90
20341;DHT22;10328;50.042;8.238;2022-08-01T15:22:59;28.70;99.90
20341;DHT22;10328;50.042;8.238;2022-08-01T15:25:26;28.70;99.90
20341;DHT22;10328;50.042;8.238;2022-08-01T15:28:08;28.70;99.90
20341;DHT22;10328;50.042;8.238;2022-08-01T15:30:35;28.60;99.90
20341;DHT22;10328;50.042;8.238;2022-08-01T15:33:02;28.70;99.90
20341;DHT22;10328;50.042;8.238;2022-08-01T15:35:29;28.80;99.90
20341;DHT22;10328;50.042;8.238;2022-08-01T15:37:56;28.90;99.90
20341;DHT22;10328;50.042;8.238;2022-08-01T15:40:22;28.90;99.90
20341;DHT22;10328;50.042;8.238;2022-08-01T15:42:49;28.80;99.90
20341;DHT22;10328;50.042;8.238;2022-08-01T15:45:16;28.80;99.90
20341;DHT22;10328;50.042;8.238;2022-08-01T15:48:05;28.80;99.90
20341;DHT22;10328;50.042;8.238;2022-08-01T15:50:32;28.90;99.90
20341;DHT22;10328;50.042;8.238;2022-08-01T15:52:58;29.00;99.90
20341;DHT22;10328;50.042;8.238;2022-08-01T15:55:25;28.90;99.90
20341;DHT22;10328;50.042;8.238;2022-08-01T15:57:52;29.00;99.90
20341;DHT22;10328;50.042;8.238;2022-08-01T16:00:18;28.90;99.90
20341;DHT22;10328;50.042;8.238;2022-08-01T16:02:45;28.80;99.90
20341;DHT22;10328;50.042;8.238;2022-08-01T16:05:13;28.80;99.90
20341;DHT22;10328;50.042;8.238;2022-08-01T16:07:46;28.80;99.90
20341;DHT22;10328;50.042;8.238;2022-08-01T16:10:27;28.70;99.90
20341;DHT22;10328;50.042;8.238;2022-08-01T16:12:54;28.70;99.90
20341;DHT22;10328;50.042;8.238;2022-08-01T16:15:21;28.60;99.90
20341;DHT22;10328;50.042;8.238;2022-08-01T16:18:02;28.50;99.90
20341;DHT22;10328;50.042;8.238;2022-08-01T16:20:28;28.40;99.90
20341;DHT22;10328;50.042;8.238;2022-08-01T16:22:55;28.40;99.90
20341;DHT22;10328;50.042;8.238;2022-08-01T16:25:22;28.50;99.90
20341;DHT22;10328;50.042;8.238;2022-08-01T16:27:48;28.50;99.90
20341;DHT22;10328;50.042;8.238;2022-08-01T16:30:15;28.50;99.90
20341;DHT22;10328;50.042;8.238;2022-08-01T16:32:42;28.40;99.90
20341;DHT22;10328;50.042;8.238;2022-08-01T16:35:17;28.30;99.90
20341;DHT22;10328;50.042;8.238;2022-08-01T16:37:44;28.20;99.90
20341;DHT22;10328;50.042;8.238;2022-08-01T16:40:11;28.10;99.90